Time;durP1;ratioP1;P1;durP2;ratioP2;P2;SDS_P1;SDS_P2;PMS_P1;PMS_P2;Temp;Humidity;BMP_temperature;BMP_pressure;BME280_temperature;BME280_humidity;BME280_pressure;Samples;Min_cycle;Max_cycle;Signal;HPM_P1;HPM_P2
2021/01/06 00:01:51;;;;;;;48.80;22.88;;;4.90;73.70;;;;;;5114464;28;20448;-73
2021/01/06 00:04:17;;;;;;;50.70;24.20;;;4.90;73.10;;;;;;5113765;28;20035;-74
2021/01/06 00:06:43;;;;;;;51.28;24.77;;;4.90;72.80;;;;;;5114330;28;20031;-76
2021/01/06 00:09:09;;;;;;;51.90;23.90;;;4.90;73.20;;;;;;5118195;28;20352;-73
2021/01/06 00:11:38;;;;;;;46.47;22.55;;;4.90;73.30;;;;;;5118241;28;20094;-73
2021/01/06 00:14:09;;;;;;;51.67;23.23;;;4.90;73.40;;;;;;5116909;28;20030;-75
2021/01/06 00:16:34;;;;;;;50.58;24.35;;;5.00;73.40;;;;;;5117608;28;20034;-74
2021/01/06 00:19:00;;;;;;;48.97;24.40;;;5.00;73.00;;;;;;5117880;28;20390;-73
2021/01/06 00:21:26;;;;;;;50.20;22.98;;;5.00;72.80;;;;;;5117876;28;20425;-73
2021/01/06 00:23:52;;;;;;;54.22;23.90;;;5.00;72.90;;;;;;5118244;28;20391;-74
2021/01/06 00:26:18;;;;;;;46.00;21.83;;;5.00;72.90;;;;;;5117610;28;20024;-74
2021/01/06 00:28:44;;;;;;;49.55;23.90;;;5.00;73.80;;;;;;5118185;28;20153;-75
2021/01/06 00:31:09;;;;;;;49.65;24.75;;;5.00;73.10;;;;;;5118167;28;20145;-75
2021/01/06 00:33:36;;;;;;;48.20;23.02;;;5.10;73.10;;;;;;5117845;28;20028;-74
2021/01/06 00:36:17;;;;;;;51.60;23.40;;;5.10;73.00;;;;;;5117805;28;20031;-74
2021/01/06 00:38:43;;;;;;;47.05;22.80;;;5.10;72.90;;;;;;5117552;28;20055;-73
2021/01/06 00:41:08;;;;;;;49.67;23.42;;;5.10;72.90;;;;;;5117729;28;20100;-74
2021/01/06 00:43:34;;;;;;;49.72;22.95;;;5.10;72.80;;;;;;5116602;28;20027;-74
2021/01/06 00:46:00;;;;;;;48.90;23.35;;;5.20;73.00;;;;;;5117563;28;20494;-74
2021/01/06 00:48:26;;;;;;;45.65;23.48;;;5.20;72.90;;;;;;5117193;28;20024;-74
2021/01/06 00:50:52;;;;;;;48.72;23.67;;;5.20;72.40;;;;;;5117323;28;20026;-74
2021/01/06 00:53:23;;;;;;;48.13;23.13;;;5.20;72.50;;;;;;5117703;28;20027;-74
2021/01/06 00:55:51;;;;;;;44.80;21.73;;;5.20;72.50;;;;;;5116383;28;20026;-74
2021/01/06 00:58:17;;;;;;;47.42;23.10;;;5.20;72.50;;;;;;5117270;28;20036;-74
2021/01/06 01:00:43;;;;;;;44.70;22.55;;;5.20;72.50;;;;;;5116980;28;20020;-72
2021/01/06 01:03:09;;;;;;;46.65;22.33;;;5.20;72.40;;;;;;5117317;28;20024;-74
2021/01/06 01:05:36;;;;;;;46.70;22.80;;;5.10;72.50;;;;;;5115183;28;20483;-73
2021/01/06 01:08:03;;;;;;;49.85;22.95;;;5.10;72.40;;;;;;5116874;28;20059;-74
2021/01/06 01:10:43;;;;;;;44.33;22.13;;;5.10;72.60;;;;;;5117355;28;20027;-74
2021/01/06 01:13:14;;;;;;;48.03;23.23;;;5.20;72.70;;;;;;5117393;28;20161;-75
2021/01/06 01:15:42;;;;;;;46.70;22.73;;;5.20;72.60;;;;;;5116992;28;20023;-73
2021/01/06 01:18:12;;;;;;;56.35;23.90;;;5.20;72.60;;;;;;5115520;28;20122;-74
2021/01/06 01:20:54;;;;;;;45.28;22.10;;;5.20;72.50;;;;;;5117194;28;20466;-73
2021/01/06 01:23:22;;;;;;;43.95;20.65;;;5.10;72.20;;;;;;5115892;28;20028;-74
2021/01/06 01:25:48;;;;;;;47.83;21.75;;;5.10;72.50;;;;;;5116784;28;20027;-76
2021/01/06 01:28:16;;;;;;;53.80;23.48;;;5.10;72.60;;;;;;5116754;28;20035;-75
2021/01/06 01:30:45;;;;;;;46.60;21.85;;;5.20;72.80;;;;;;5115472;28;20028;-74
2021/01/06 01:33:14;;;;;;;42.75;21.70;;;5.20;72.70;;;;;;5116512;28;20046;-75
2021/01/06 01:35:40;;;;;;;48.15;22.80;;;5.20;72.60;;;;;;5117083;28;20028;-73
2021/01/06 01:38:06;;;;;;;45.80;22.27;;;5.20;72.20;;;;;;5116477;28;20062;-73
2021/01/06 01:40:38;;;;;;;50.15;21.90;;;5.20;72.20;;;;;;5116931;28;20032;-74
2021/01/06 01:43:06;;;;;;;49.90;22.25;;;5.20;72.40;;;;;;5115387;28;20023;-73
2021/01/06 01:45:52;;;;;;;49.50;21.75;;;5.20;72.00;;;;;;5116145;28;20023;-72
2021/01/06 01:48:36;;;;;;;46.80;20.70;;;5.10;72.20;;;;;;5108940;28;20384;-73
2021/01/06 01:51:40;;;;;;;46.13;21.73;;;5.10;72.40;;;;;;5114981;28;20027;-73
2021/01/06 01:54:14;;;;;;;46.42;22.33;;;5.10;72.50;;;;;;5115120;28;20352;-73
2021/01/06 01:57:12;;;;;;;50.08;20.73;;;5.10;72.40;;;;;;5116207;28;20172;-73
2021/01/06 01:59:55;;;;;;;46.53;21.30;;;5.00;72.00;;;;;;5111856;28;20383;-73
2021/01/06 02:02:46;;;;;;;49.70;22.38;;;4.90;72.10;;;;;;5116037;28;20360;-74
2021/01/06 02:05:20;;;;;;;50.05;21.90;;;4.90;72.70;;;;;;5115954;28;20024;-74
2021/01/06 02:08:14;;;;;;;52.30;20.48;;;4.90;72.90;;;;;;5116472;28;20047;-74
2021/01/06 02:10:52;;;;;;;44.58;21.95;;;5.00;72.90;;;;;;5111124;28;20039;-73
2021/01/06 02:13:33;;;;;;;60.17;24.20;;;5.00;72.70;;;;;;5116430;28;20020;-73
2021/01/06 02:16:23;;;;;;;50.17;22.02;;;5.00;72.80;;;;;;5115728;28;20024;-73
2021/01/06 02:18:50;;;;;;;50.03;21.80;;;5.00;72.70;;;;;;5115063;28;20373;-73
2021/01/06 02:21:23;;;;;;;56.55;23.27;;;5.00;72.80;;;;;;5115623;28;20088;-73
2021/01/06 02:23:51;;;;;;;59.80;23.35;;;5.10;72.90;;;;;;5115596;28;20027;-73
2021/01/06 02:26:19;;;;;;;57.25;24.23;;;5.10;72.90;;;;;;5115319;28;20027;-73
2021/01/06 02:28:47;;;;;;;47.35;19.95;;;5.10;72.90;;;;;;5115849;28;20470;-73
2021/01/06 02:31:13;;;;;;;48.67;21.52;;;5.10;72.70;;;;;;5113711;28;20114;-73
2021/01/06 02:33:39;;;;;;;47.55;22.08;;;5.20;72.70;;;;;;5116148;28;20061;-73
2021/01/06 02:36:05;;;;;;;51.58;22.15;;;5.20;73.40;;;;;;5115564;28;20020;-72
2021/01/06 02:38:32;;;;;;;52.13;21.70;;;5.20;72.80;;;;;;5115370;28;20135;-72
2021/01/06 02:40:58;;;;;;;52.42;23.60;;;5.20;72.80;;;;;;5114057;28;20080;-73
2021/01/06 02:43:25;;;;;;;51.10;22.83;;;5.20;72.80;;;;;;5115177;28;20035;-73
2021/01/06 02:45:52;;;;;;;49.17;21.35;;;5.30;72.70;;;;;;5113864;28;20031;-74
2021/01/06 02:48:19;;;;;;;56.67;22.98;;;5.30;72.50;;;;;;5113916;28;20024;-73
2021/01/06 02:50:49;;;;;;;60.15;23.27;;;5.30;72.40;;;;;;5115343;28;20035;-74
2021/01/06 02:53:22;;;;;;;58.92;23.13;;;5.30;72.50;;;;;;5115079;28;20023;-74
2021/01/06 02:55:49;;;;;;;60.92;23.67;;;5.30;72.50;;;;;;5113600;28;20023;-74
2021/01/06 02:58:17;;;;;;;51.72;22.80;;;5.30;72.70;;;;;;5114897;28;20383;-74
2021/01/06 03:00:43;;;;;;;59.72;23.00;;;5.30;72.70;;;;;;5113657;28;20374;-74
2021/01/06 03:03:12;;;;;;;60.15;25.58;;;5.30;72.40;;;;;;5115145;28;20024;-73
2021/01/06 03:05:47;;;;;;;60.63;24.33;;;5.30;72.00;;;;;;5114562;28;20016;-73
2021/01/06 03:08:15;;;;;;;64.07;23.70;;;5.20;71.60;;;;;;5115154;28;20028;-73
2021/01/06 03:10:41;;;;;;;56.40;23.73;;;5.00;71.70;;;;;;5114533;28;20428;-74
2021/01/06 03:13:07;;;;;;;65.28;25.10;;;4.90;72.20;;;;;;5114454;28;20023;-73
2021/01/06 03:15:33;;;;;;;61.95;24.80;;;4.80;72.70;;;;;;5114742;28;20072;-73
2021/01/06 03:17:59;;;;;;;70.25;25.35;;;4.80;72.90;;;;;;5113165;28;20130;-74
2021/01/06 03:20:31;;;;;;;70.63;24.45;;;4.80;73.20;;;;;;5114616;28;20024;-72
2021/01/06 03:23:04;;;;;;;63.45;25.15;;;4.80;73.20;;;;;;5114617;28;20115;-72
2021/01/06 03:25:30;;;;;;;61.70;24.23;;;4.70;73.30;;;;;;5113852;28;20020;-73
2021/01/06 03:27:57;;;;;;;67.40;25.27;;;4.70;73.40;;;;;;5114186;28;20486;-75
2021/01/06 03:30:29;;;;;;;65.75;24.30;;;4.70;73.50;;;;;;5114434;28;20036;-73
2021/01/06 03:33:14;;;;;;;65.63;23.80;;;4.70;73.60;;;;;;5114325;28;20038;-73
2021/01/06 03:35:47;;;;;;;59.13;24.70;;;4.70;73.50;;;;;;5092661;28;20039;-73
2021/01/06 03:38:16;;;;;;;76.72;25.05;;;4.60;73.50;;;;;;5114084;28;20048;-73
2021/01/06 03:40:48;;;;;;;64.75;23.92;;;4.60;74.00;;;;;;5114432;28;20035;-75
2021/01/06 03:43:16;;;;;;;66.60;24.98;;;4.60;74.20;;;;;;5114726;28;20049;-76
2021/01/06 03:45:46;;;;;;;68.13;25.40;;;4.60;74.30;;;;;;5114478;28;20047;-76
2021/01/06 03:48:27;;;;;;;59.70;24.65;;;4.60;74.30;;;;;;5114369;28;20031;-76
2021/01/06 03:51:00;;;;;;;70.93;25.17;;;4.60;74.30;;;;;;5114598;28;20440;-75
2021/01/06 03:53:43;;;;;;;65.65;25.33;;;4.70;74.80;;;;;;5114252;28;20031;-73
2021/01/06 03:56:18;;;;;;;63.67;24.90;;;4.70;74.30;;;;;;5114111;28;20028;-73
2021/01/06 03:59:04;;;;;;;;;;;4.70;74.00;;;;;;5112990;28;20160;-73
2021/01/06 04:01:45;;;;;;;72.63;22.50;;;4.70;73.70;;;;;;5113968;28;19907;-72
2021/01/06 04:04:32;;;;;;;61.97;24.30;;;4.70;73.80;;;;;;5112881;28;20127;-74
2021/01/06 04:07:01;;;;;;;67.80;24.20;;;4.60;74.30;;;;;;5113032;28;20062;-73
2021/01/06 04:09:43;;;;;;;60.25;23.73;;;4.70;74.60;;;;;;5114027;28;20024;-74
2021/01/06 04:12:12;;;;;;;72.85;26.17;;;4.70;74.60;;;;;;5113680;28;20104;-74
2021/01/06 04:14:38;;;;;;;63.63;23.20;;;4.70;74.40;;;;;;5114097;28;20039;-71
2021/01/06 04:17:30;;;;;;;63.75;22.65;;;4.70;74.60;;;;;;5113745;28;20031;-73
2021/01/06 04:20:14;;;;;;;60.20;24.67;;;4.80;74.40;;;;;;5108970;28;20044;-72
2021/01/06 04:22:46;;;;;;;67.57;23.77;;;4.70;73.90;;;;;;5112658;28;20023;-73
2021/01/06 04:25:28;;;;;;;73.35;24.13;;;4.60;73.90;;;;;;5112568;28;20023;-74
2021/01/06 04:28:05;;;;;;;75.75;25.30;;;4.60;74.20;;;;;;5113829;28;20031;-72
2021/01/06 04:30:44;;;;;;;79.75;25.27;;;4.50;74.20;;;;;;5112237;28;20034;-73
2021/01/06 04:33:19;;;;;;;70.32;25.13;;;4.40;74.50;;;;;;5114052;28;20067;-73
2021/01/06 04:35:45;;;;;;;74.70;26.27;;;4.40;74.50;;;;;;5112413;28;20051;-73
2021/01/06 04:38:27;;;;;;;76.75;24.63;;;4.40;74.90;;;;;;5113731;28;20051;-74
2021/01/06 04:41:12;;;;;;;86.00;25.92;;;4.30;75.30;;;;;;5113594;28;20024;-73
2021/01/06 04:43:45;;;;;;;85.30;27.10;;;4.30;75.10;;;;;;5113704;28;20027;-73
2021/01/06 04:46:47;;;;;;;82.13;26.63;;;4.30;75.20;;;;;;5113663;28;20020;-72
2021/01/06 04:49:33;;;;;;;88.40;26.42;;;4.30;75.50;;;;;;5113688;28;20073;-72
2021/01/06 04:52:14;;;;;;;85.05;26.45;;;4.30;75.50;;;;;;5113485;28;20364;-73
2021/01/06 04:54:58;;;;;;;83.78;25.48;;;4.30;75.60;;;;;;5117745;28;20024;-72
2021/01/06 04:57:55;;;;;;;89.00;26.95;;;4.30;75.90;;;;;;5116411;28;20065;-74
2021/01/06 05:01:06;;;;;;;78.22;27.33;;;4.30;75.90;;;;;;5117074;28;20023;-73
2021/01/06 05:03:49;;;;;;;81.00;24.30;;;4.20;75.80;;;;;;5094120;28;20042;-74
2021/01/06 05:06:45;;;;;;;79.55;26.35;;;4.20;75.80;;;;;;5117380;28;20459;-73
2021/01/06 05:09:23;;;;;;;76.03;25.80;;;4.10;76.00;;;;;;5117185;28;20031;-74
2021/01/06 05:12:10;;;;;;;77.10;26.35;;;4.10;76.10;;;;;;5117546;28;20436;-73
2021/01/06 05:15:11;;;;;;;85.10;25.75;;;4.00;76.40;;;;;;5117233;28;20030;-73
2021/01/06 05:17:41;;;;;;;81.30;25.95;;;4.00;76.80;;;;;;5074159;28;20041;-72
2021/01/06 05:20:09;;;;;;;70.20;24.27;;;4.10;77.00;;;;;;5109498;28;20058;-73
2021/01/06 05:22:35;;;;;;;80.55;25.65;;;4.10;77.00;;;;;;5116890;28;20024;-73
2021/01/06 05:25:03;;;;;;;70.95;25.70;;;4.10;77.00;;;;;;5116774;28;20098;-74
2021/01/06 05:27:36;;;;;;;87.30;26.77;;;4.10;77.60;;;;;;5115342;28;20053;-72
2021/01/06 05:30:27;;;;;;;91.30;24.95;;;4.10;77.60;;;;;;5115333;28;20420;-72
2021/01/06 05:33:02;;;;;;;74.78;24.95;;;4.20;77.80;;;;;;5117070;28;20427;-74
2021/01/06 05:35:35;;;;;;;77.53;25.80;;;4.30;77.50;;;;;;5116655;28;20313;-73
2021/01/06 05:38:02;;;;;;;92.10;26.50;;;4.30;77.30;;;;;;5114855;28;20047;-72
2021/01/06 05:40:30;;;;;;;74.20;26.38;;;4.20;77.20;;;;;;5116336;28;20424;-73
2021/01/06 05:43:04;;;;;;;87.90;26.23;;;4.20;77.40;;;;;;5116905;28;20337;-73
2021/01/06 05:45:45;;;;;;;82.10;25.30;;;4.20;77.40;;;;;;5116639;28;20463;-73
2021/01/06 05:48:21;;;;;;;100.57;25.95;;;4.20;77.40;;;;;;5116378;28;20032;-74
2021/01/06 05:51:12;;;;;;;77.95;26.48;;;4.20;77.70;;;;;;5116283;28;20031;-72
2021/01/06 05:53:45;;;;;;;87.45;26.92;;;4.30;77.90;;;;;;5111420;28;20040;-73
2021/01/06 05:56:21;;;;;;;78.35;24.80;;;4.30;77.80;;;;;;5115683;28;20046;-73
2021/01/06 05:58:56;;;;;;;125.88;28.45;;;4.30;77.80;;;;;;5116532;28;20031;-73
2021/01/06 06:01:37;;;;;;;107.80;25.58;;;4.40;78.10;;;;;;5114852;28;20024;-74
2021/01/06 06:04:18;;;;;;;77.68;25.48;;;4.40;78.30;;;;;;5114013;28;20032;-74
2021/01/06 06:07:14;;;;;;;110.30;26.60;;;4.50;78.00;;;;;;5115612;28;20034;-73
2021/01/06 06:10:06;;;;;;;81.93;26.13;;;4.60;78.00;;;;;;5115838;28;20036;-73
2021/01/06 06:13:00;;;;;;;99.15;25.95;;;4.60;77.60;;;;;;5116392;28;20485;-74
2021/01/06 06:15:55;;;;;;;102.72;27.40;;;4.60;77.60;;;;;;5116185;28;20062;-72
2021/01/06 06:18:38;;;;;;;163.98;28.10;;;4.60;77.40;;;;;;5115004;28;20054;-73
2021/01/06 06:21:40;;;;;;;177.27;28.60;;;4.50;77.20;;;;;;5115415;28;20039;-72
2021/01/06 06:24:25;;;;;;;112.22;27.00;;;4.50;76.90;;;;;;5115262;28;20070;-72
2021/01/06 06:27:17;;;;;;;169.55;29.95;;;4.40;77.10;;;;;;5113996;28;20028;-75
2021/01/06 06:30:12;;;;;;;105.93;25.85;;;4.30;77.30;;;;;;5115926;28;20110;-74
2021/01/06 06:32:40;;;;;;;207.05;32.05;;;4.30;77.60;;;;;;5099947;28;20080;-76
2021/01/06 06:35:18;;;;;;;119.65;27.67;;;4.30;77.90;;;;;;5115657;28;20020;-73
2021/01/06 06:37:57;;;;;;;147.43;29.73;;;4.30;78.00;;;;;;5115417;28;20055;-74
2021/01/06 06:40:25;;;;;;;112.88;27.40;;;4.30;78.40;;;;;;5115868;28;20104;-74
2021/01/06 06:42:50;;;;;;;200.65;32.53;;;4.40;78.50;;;;;;5115392;28;20028;-75
2021/01/06 06:45:38;;;;;;;108.53;29.42;;;4.40;78.40;;;;;;5114966;28;20046;-74
2021/01/06 06:48:31;;;;;;;221.68;34.83;;;4.40;78.50;;;;;;5113847;28;20059;-73
2021/01/06 06:51:16;;;;;;;172.02;30.20;;;4.50;78.80;;;;;;5114826;28;20468;-74
2021/01/06 06:54:22;;;;;;;179.30;32.30;;;4.50;78.40;;;;;;5114239;28;20028;-74
2021/01/06 06:57:12;;;;;;;119.53;27.83;;;4.60;78.50;;;;;;5091736;28;20043;-73
2021/01/06 06:59:47;;;;;;;89.53;28.23;;;4.60;78.70;;;;;;5113792;28;20027;-73
2021/01/06 07:02:13;;;;;;;201.80;34.50;;;4.70;79.00;;;;;;5115342;28;20367;-75
2021/01/06 07:04:52;;;;;;;156.73;30.30;;;4.70;78.90;;;;;;5115140;28;20032;-76
2021/01/06 07:07:27;;;;;;;138.88;29.70;;;4.80;79.60;;;;;;5115042;28;20432;-77
2021/01/06 07:09:53;;;;;;;136.93;31.38;;;4.90;79.20;;;;;;5113335;28;20028;-74
2021/01/06 07:12:18;;;;;;;188.55;34.70;;;4.90;79.00;;;;;;5114334;28;20103;-73
2021/01/06 07:14:44;;;;;;;137.27;31.00;;;5.00;79.00;;;;;;5113634;28;20023;-74
2021/01/06 07:17:28;;;;;;;126.78;28.90;;;5.10;78.80;;;;;;5114254;28;20036;-73
2021/01/06 07:19:58;;;;;;;90.30;29.13;;;5.10;78.70;;;;;;5113308;28;20053;-74
2021/01/06 07:22:33;;;;;;;135.23;32.20;;;5.20;79.00;;;;;;5114563;28;20382;-72
2021/01/06 07:25:07;;;;;;;188.10;33.83;;;5.30;79.30;;;;;;5113543;28;20485;-74
2021/01/06 07:27:34;;;;;;;86.43;28.95;;;5.40;79.10;;;;;;5114242;28;20118;-73
2021/01/06 07:30:00;;;;;;;136.55;31.50;;;5.50;78.70;;;;;;5114201;28;20024;-73
2021/01/06 07:32:56;;;;;;;102.28;29.08;;;5.60;78.70;;;;;;5114157;28;20054;-74
2021/01/06 07:35:25;;;;;;;85.28;27.77;;;5.70;78.70;;;;;;5105834;28;20046;-72
2021/01/06 07:38:02;;;;;;;92.40;28.63;;;5.90;78.70;;;;;;5112547;28;20054;-73
2021/01/06 07:40:35;;;;;;;87.38;28.48;;;5.90;78.50;;;;;;5096370;28;20034;-74
2021/01/06 07:43:07;;;;;;;102.25;27.77;;;6.00;78.30;;;;;;5112984;28;20375;-73
2021/01/06 07:45:44;;;;;;;132.00;28.05;;;6.10;77.80;;;;;;5114383;28;20028;-72
2021/01/06 07:48:15;;;;;;;99.95;27.80;;;6.20;77.70;;;;;;5114242;28;20074;-74
2021/01/06 07:51:18;;;;;;;106.85;28.10;;;6.20;77.30;;;;;;5113973;28;20072;-72
2021/01/06 07:53:44;;;;;;;103.93;27.75;;;6.30;77.10;;;;;;5112729;28;20039;-74
2021/01/06 07:56:41;;;;;;;99.47;27.65;;;6.30;77.00;;;;;;5113733;28;20032;-72
2021/01/06 07:59:25;;;;;;;106.88;28.40;;;6.30;76.80;;;;;;5113294;28;20040;-73
2021/01/06 08:02:08;;;;;;;89.53;26.35;;;6.30;76.40;;;;;;5113493;28;20038;-74
2021/01/06 08:04:56;;;;;;;183.45;30.38;;;6.40;76.50;;;;;;5112976;28;20019;-74
2021/01/06 08:07:24;;;;;;;95.22;28.13;;;6.40;76.40;;;;;;5112463;28;20028;-74
2021/01/06 08:09:51;;;;;;;75.88;27.30;;;6.40;76.50;;;;;;5114404;28;20161;-72
2021/01/06 08:12:39;;;;;;;94.82;30.25;;;6.40;76.60;;;;;;5112773;28;20020;-74
2021/01/06 08:15:17;;;;;;;121.85;31.45;;;6.50;76.70;;;;;;5112788;28;20459;-74
2021/01/06 08:17:46;;;;;;;92.90;29.30;;;6.50;76.60;;;;;;5112427;28;20038;-74
2021/01/06 08:20:20;;;;;;;83.03;29.05;;;6.60;76.40;;;;;;5113781;28;20027;-73
2021/01/06 08:23:01;;;;;;;98.45;30.17;;;6.60;76.40;;;;;;5113795;28;20076;-73
2021/01/06 08:25:33;;;;;;;90.82;29.88;;;6.70;76.50;;;;;;5113600;28;20051;-73
2021/01/06 08:28:13;;;;;;;121.68;41.90;;;6.70;76.30;;;;;;5113924;28;20031;-74
2021/01/06 08:30:38;;;;;;;90.38;31.90;;;6.80;76.20;;;;;;5117486;28;20030;-72
2021/01/06 08:33:13;;;;;;;111.82;33.55;;;6.80;76.20;;;;;;5117891;28;20430;-74
2021/01/06 08:35:46;;;;;;;93.75;29.73;;;6.90;76.00;;;;;;5116582;28;20042;-73
2021/01/06 08:38:34;;;;;;;87.22;29.75;;;7.00;75.80;;;;;;5116477;28;20050;-74
2021/01/06 08:41:18;;;;;;;85.70;27.00;;;7.10;75.60;;;;;;5117792;28;20027;-74
2021/01/06 08:43:45;;;;;;;92.80;30.07;;;7.10;75.50;;;;;;5116641;28;20058;-74
2021/01/06 08:46:31;;;;;;;99.32;30.40;;;7.20;75.60;;;;;;5117949;28;20363;-74
2021/01/06 08:49:24;;;;;;;94.45;33.15;;;7.30;75.30;;;;;;5117460;28;20076;-72
2021/01/06 08:51:51;;;;;;;81.68;30.38;;;7.30;75.00;;;;;;5112941;28;20188;-73
2021/01/06 08:54:31;;;;;;;76.75;28.17;;;7.40;75.10;;;;;;5117271;28;20375;-72
2021/01/06 08:57:22;;;;;;;82.93;26.77;;;7.50;74.90;;;;;;5117867;28;20480;-72
2021/01/06 08:59:48;;;;;;;78.38;28.00;;;7.60;74.50;;;;;;5112068;28;20048;-74
2021/01/06 09:02:33;;;;;;;71.38;25.83;;;7.70;74.30;;;;;;5116123;28;20084;-74
2021/01/06 09:04:59;;;;;;;64.75;23.65;;;7.70;73.90;;;;;;5115979;28;20030;-75
2021/01/06 09:07:30;;;;;;;76.82;25.80;;;7.70;73.30;;;;;;5117081;28;20158;-74
2021/01/06 09:10:29;;;;;;;78.03;26.00;;;7.60;73.30;;;;;;5117318;28;20075;-72
2021/01/06 09:13:10;;;;;;;128.35;29.67;;;7.60;73.30;;;;;;5117572;28;20028;-74
2021/01/06 09:16:00;;;;;;;71.95;25.92;;;7.60;73.10;;;;;;5117103;28;20020;-74
2021/01/06 09:18:39;;;;;;;100.60;27.13;;;7.60;73.20;;;;;;5117387;28;20456;-74
2021/01/06 09:21:13;;;;;;;82.95;25.85;;;7.60;72.80;;;;;;5117528;28;20099;-73
2021/01/06 09:23:39;;;;;;;;;;;7.50;72.90;;;;;;5117218;28;20028;-74
2021/01/06 09:26:06;;;;;;;74.45;25.80;;;7.60;73.00;;;;;;5115815;28;19904;-73
2021/01/06 09:28:37;;;;;;;74.90;28.45;;;7.60;73.00;;;;;;5117176;28;20084;-74
2021/01/06 09:31:04;;;;;;;76.72;26.27;;;7.60;73.30;;;;;;5116490;28;20026;-75
2021/01/06 09:33:33;;;;;;;73.65;25.05;;;7.60;73.30;;;;;;5115291;28;20114;-73
2021/01/06 09:36:01;;;;;;;77.22;25.90;;;7.70;73.30;;;;;;5116490;28;20028;-72
2021/01/06 09:39:04;;;;;;;85.75;28.10;;;7.70;72.70;;;;;;5116274;28;20108;-73
2021/01/06 09:41:33;;;;;;;71.65;27.88;;;7.70;73.00;;;;;;5073597;28;20055;-74
2021/01/06 09:44:03;;;;;;;95.78;29.10;;;7.70;73.10;;;;;;5109358;28;20413;-73
2021/01/06 09:46:41;;;;;;;72.35;27.27;;;7.70;73.00;;;;;;5116412;28;20027;-73
2021/01/06 09:49:14;;;;;;;80.00;27.95;;;7.70;72.80;;;;;;5116163;28;20047;-73
2021/01/06 09:51:45;;;;;;;81.25;29.27;;;7.80;73.70;;;;;;5116588;28;20023;-73
2021/01/06 09:54:13;;;;;;;85.15;29.15;;;7.80;73.00;;;;;;5116423;28;20165;-73
2021/01/06 09:56:39;;;;;;;81.47;30.23;;;7.90;73.00;;;;;;5116230;28;20081;-73
2021/01/06 09:59:23;;;;;;;77.63;29.48;;;8.00;72.90;;;;;;5114679;28;20035;-73
2021/01/06 10:02:28;;;;;;;79.03;28.43;;;8.00;72.70;;;;;;5115244;28;20106;-74
2021/01/06 10:05:05;;;;;;;86.65;30.38;;;8.00;72.50;;;;;;5114231;28;20043;-74
2021/01/06 10:07:38;;;;;;;83.03;30.65;;;8.10;72.40;;;;;;5116564;28;20053;-73
2021/01/06 10:10:35;;;;;;;85.97;31.25;;;8.10;72.20;;;;;;5116246;28;20024;-73
2021/01/06 10:13:28;;;;;;;82.85;30.92;;;8.20;72.20;;;;;;5116164;28;20102;-72
2021/01/06 10:16:01;;;;;;;76.82;30.42;;;8.20;72.10;;;;;;5114461;28;20035;-74
2021/01/06 10:18:45;;;;;;;88.68;31.77;;;8.20;72.10;;;;;;5115885;28;20474;-75
2021/01/06 10:21:29;;;;;;;85.50;32.72;;;8.20;72.00;;;;;;5114378;28;20023;-74
2021/01/06 10:24:17;;;;;;;131.80;35.47;;;8.30;72.00;;;;;;5116377;28;20076;-74
2021/01/06 10:26:46;;;;;;;93.22;33.47;;;8.30;71.60;;;;;;5115642;28;20352;-74
2021/01/06 10:29:29;;;;;;;125.22;37.22;;;8.20;71.80;;;;;;5115763;28;20031;-73
2021/01/06 10:32:04;;;;;;;90.05;36.22;;;8.30;71.80;;;;;;5115856;28;20027;-72
2021/01/06 10:34:36;;;;;;;80.18;29.50;;;8.30;71.70;;;;;;5115895;28;20027;-75
2021/01/06 10:37:05;;;;;;;69.82;28.30;;;8.30;71.70;;;;;;5115361;28;20038;-75
2021/01/06 10:39:44;;;;;;;79.15;28.30;;;8.30;71.70;;;;;;5115950;28;20057;-73
2021/01/06 10:42:21;;;;;;;89.38;30.88;;;8.30;71.50;;;;;;5115708;28;20105;-75
2021/01/06 10:45:13;;;;;;;95.00;31.88;;;8.30;71.40;;;;;;5113927;28;20019;-74
2021/01/06 10:47:50;;;;;;;89.72;31.90;;;8.30;71.40;;;;;;5113949;28;20023;-74
2021/01/06 10:50:29;;;;;;;88.82;31.73;;;8.40;71.50;;;;;;5115240;28;20027;-75
2021/01/06 10:53:12;;;;;;;82.93;31.70;;;8.30;71.40;;;;;;5115200;28;20081;-73
2021/01/06 10:55:42;;;;;;;84.32;28.85;;;8.40;71.70;;;;;;5115244;28;20328;-76
2021/01/06 10:58:38;;;;;;;85.18;28.85;;;8.40;71.60;;;;;;5113736;28;20038;-74
2021/01/06 11:01:09;;;;;;;77.05;25.90;;;8.50;71.50;;;;;;5113815;28;20086;-74
2021/01/06 11:03:59;;;;;;;75.72;27.15;;;8.50;71.60;;;;;;5114961;28;20092;-75
2021/01/06 11:06:45;;;;;;;96.78;32.70;;;8.60;71.30;;;;;;5114906;28;20420;-75
2021/01/06 11:09:38;;;;;;;68.93;25.23;;;8.70;71.00;;;;;;5114661;28;20024;-73
2021/01/06 11:12:13;;;;;;;72.75;26.80;;;8.60;70.70;;;;;;5115180;28;20065;-72
2021/01/06 11:15:12;;;;;;;67.07;23.58;;;8.60;70.60;;;;;;5114687;28;20502;-74
2021/01/06 11:17:40;;;;;;;74.78;23.25;;;8.60;70.60;;;;;;5114071;28;20521;-73
2021/01/06 11:20:35;;;;;;;76.88;29.02;;;8.50;70.50;;;;;;5115115;28;20081;-73
2021/01/06 11:23:20;;;;;;;;;;;8.50;70.40;;;;;;5114703;28;20024;-73
2021/01/06 11:25:51;;;;;;;73.00;25.35;;;8.50;70.80;;;;;;5114604;28;19911;-73
2021/01/06 11:28:35;;;;;;;78.10;25.60;;;8.50;70.70;;;;;;5114573;28;20024;-75
2021/01/06 11:31:24;;;;;;;68.18;23.50;;;8.50;70.70;;;;;;5113152;28;20070;-73
2021/01/06 11:33:58;;;;;;;68.47;24.13;;;8.50;70.60;;;;;;5093443;28;20054;-73
2021/01/06 11:36:51;;;;;;;78.43;23.55;;;8.50;70.70;;;;;;5114508;28;20361;-74
2021/01/06 11:39:35;;;;;;;61.03;21.17;;;8.50;70.60;;;;;;5112615;28;20080;-73
2021/01/06 11:42:17;;;;;;;69.65;22.58;;;8.50;70.50;;;;;;5114469;28;20359;-73
2021/01/06 11:45:04;;;;;;;103.43;24.30;;;8.50;70.50;;;;;;5113686;28;20035;-75
2021/01/06 11:47:55;;;;;;;65.70;23.70;;;8.40;70.40;;;;;;5114118;28;20463;-74
2021/01/06 11:50:41;;;;;;;69.10;24.92;;;8.40;70.60;;;;;;5114004;28;20020;-75
2021/01/06 11:53:16;;;;;;;91.22;29.95;;;8.40;70.60;;;;;;5114428;28;20027;-75
2021/01/06 11:55:48;;;;;;;81.72;28.70;;;8.40;70.80;;;;;;5115010;28;20527;-74
2021/01/06 11:58:21;;;;;;;104.40;32.08;;;8.50;70.80;;;;;;5114123;28;20024;-75
2021/01/06 12:01:22;;;;;;;89.90;31.13;;;8.50;70.80;;;;;;5113603;28;20024;-74
2021/01/06 12:03:57;;;;;;;88.43;31.08;;;8.50;70.90;;;;;;5113300;28;20034;-74
2021/01/06 12:06:55;;;;;;;91.70;31.52;;;8.50;70.80;;;;;;5113729;28;20023;-73
2021/01/06 12:09:55;;;;;;;88.05;30.63;;;8.50;70.80;;;;;;5113515;28;20032;-74
2021/01/06 12:12:43;;;;;;;74.57;30.65;;;8.50;70.60;;;;;;5113776;28;20035;-75
2021/01/06 12:15:30;;;;;;;75.95;29.83;;;8.50;70.80;;;;;;5112803;28;20028;-74
2021/01/06 12:18:00;;;;;;;85.97;31.25;;;8.50;70.80;;;;;;5113811;28;20038;-74
2021/01/06 12:20:30;;;;;;;101.07;32.95;;;8.50;70.80;;;;;;5114093;28;20023;-74
2021/01/06 12:23:14;;;;;;;86.50;32.33;;;8.50;70.80;;;;;;5113992;28;20024;-75
2021/01/06 12:25:49;;;;;;;98.45;31.60;;;8.50;70.80;;;;;;5114179;28;20036;-75
2021/01/06 12:28:45;;;;;;;103.93;33.13;;;8.50;70.80;;;;;;5113793;28;20024;-76
2021/01/06 12:31:13;;;;;;;109.65;34.65;;;8.50;70.70;;;;;;5113978;28;20089;-75
2021/01/06 12:34:01;;;;;;;89.63;31.90;;;8.60;70.80;;;;;;5113367;28;20428;-76
2021/01/06 12:36:37;;;;;;;92.00;29.20;;;8.60;70.80;;;;;;5112258;28;20028;-75
2021/01/06 12:39:27;;;;;;;90.07;31.25;;;8.60;70.70;;;;;;5112258;28;20058;-75
2021/01/06 12:42:25;;;;;;;84.38;31.15;;;8.60;70.50;;;;;;5113639;28;20020;-75
2021/01/06 12:45:06;;;;;;;88.75;29.13;;;8.60;70.50;;;;;;5113671;28;20036;-74
2021/01/06 12:47:42;;;;;;;81.43;29.73;;;8.60;70.40;;;;;;5112539;28;20425;-74
2021/01/06 12:50:40;;;;;;;98.05;30.25;;;8.60;70.40;;;;;;5114047;28;20027;-75
2021/01/06 12:53:38;;;;;;;181.52;34.67;;;8.60;70.20;;;;;;5101413;28;20032;-75
2021/01/06 12:56:04;;;;;;;79.43;27.85;;;8.50;69.90;;;;;;5113389;28;20062;-75
2021/01/06 12:58:46;;;;;;;85.85;30.70;;;8.30;69.70;;;;;;5113095;28;20032;-74
2021/01/06 13:01:28;;;;;;;119.20;33.92;;;8.20;70.20;;;;;;5114017;28;20073;-76
2021/01/06 13:03:57;;;;;;;109.72;32.83;;;8.00;70.30;;;;;;5112443;28;20024;-74
2021/01/06 13:06:39;;;;;;;73.20;28.00;;;7.90;70.60;;;;;;5113857;28;20452;-73
2021/01/06 13:09:14;;;;;;;86.93;27.40;;;7.80;71.30;;;;;;5111904;28;20028;-75
2021/01/06 13:11:41;;;;;;;;;;;7.70;71.70;;;;;;5113610;28;20106;-77
2021/01/06 13:14:34;;;;;;;71.03;21.08;;;7.70;71.20;;;;;;5115119;28;20359;-75
2021/01/06 13:17:14;;;;;;;84.13;22.45;;;7.50;71.30;;;;;;5115898;28;20031;-73
2021/01/06 13:20:06;;;;;;;71.60;22.48;;;7.40;71.80;;;;;;5116043;28;20038;-73
2021/01/06 13:22:32;;;;;;;65.93;21.58;;;7.30;72.50;;;;;;5116955;28;20027;-75
2021/01/06 13:25:25;;;;;;;62.45;22.10;;;7.30;72.80;;;;;;5116636;28;20024;-74
2021/01/06 13:27:50;;;;;;;179.38;25.90;;;7.30;73.50;;;;;;5116136;28;20391;-74